Time;durP1;ratioP1;P1;durP2;ratioP2;P2;SDS_P1;SDS_P2;PMS_P1;PMS_P2;Temp;Humidity;BMP_temperature;BMP_pressure;BME280_temperature;BME280_humidity;BME280_pressure;Samples;Min_cycle;Max_cycle;Signal;HPM_P1;HPM_P2
2023/03/06 00:02:03;;;;;;;3.72;2.40;;;;;;;;;;5018346;27;98790;-75
2023/03/06 00:04:30;;;;;;;4.35;2.78;;;;;;;;;;5021722;28;99602;-75
2023/03/06 00:06:57;;;;;;;4.25;2.33;;;;;;;;;;5030667;27;98569;-76
2023/03/06 00:09:23;;;;;;;2.70;2.42;;;;;;;;;;5029609;27;99517;-75
2023/03/06 00:11:49;;;;;;;2.40;2.28;;;;;;;;;;5010822;28;100013;-75
2023/03/06 00:14:16;;;;;;;3.15;2.60;;;;;;;;;;5011168;28;98224;-75
2023/03/06 00:16:43;;;;;;;5.28;2.70;;;;;;;;;;5010848;28;99447;-75
2023/03/06 00:19:09;;;;;;;4.40;2.83;;;;;;;;;;5011054;28;100170;-75
2023/03/06 00:21:36;;;;;;;2.75;2.53;;;;;;;;;;5024716;28;98291;-75
2023/03/06 00:24:02;;;;;;;2.55;2.40;;;;;;;;;;5034110;28;99429;-75
2023/03/06 00:26:32;;;;;;;8.35;2.92;;;;;;;;;;5029288;27;99236;-76
2023/03/06 00:28:59;;;;;;;3.25;2.67;;;;;;;;;;5010957;28;99495;-76
2023/03/06 00:31:26;;;;;;;3.67;2.85;;;;;;;;;;5009571;28;98470;-74
2023/03/06 00:33:53;;;;;;;3.40;2.88;;;;;;;;;;5011083;28;98612;-75
2023/03/06 00:36:19;;;;;;;2.72;2.58;;;;;;;;;;5010646;28;98250;-75
2023/03/06 00:38:46;;;;;;;3.22;3.03;;;;;;;;;;5021498;27;98843;-75
2023/03/06 00:41:12;;;;;;;4.80;3.30;;;;;;;;;;5048235;27;98390;-75
2023/03/06 00:43:38;;;;;;;3.40;3.10;;;;;;;;;;5044117;27;98386;-75
2023/03/06 00:46:06;;;;;;;3.45;3.13;;;;;;;;;;5029270;28;100112;-76
2023/03/06 00:48:33;;;;;;;7.43;3.50;;;;;;;;;;5014670;28;98369;-76
2023/03/06 00:50:59;;;;;;;5.80;3.28;;;;;;;;;;5009402;28;99325;-75
2023/03/06 00:53:26;;;;;;;6.68;3.45;;;;;;;;;;5010610;28;98859;-75
2023/03/06 00:55:52;;;;;;;6.63;3.05;;;;;;;;;;5009358;28;98374;-75
2023/03/06 00:58:18;;;;;;;11.95;2.35;;;;;;;;;;5023510;28;101945;-75
2023/03/06 01:00:45;;;;;;;5.32;3.00;;;;;;;;;;5030526;28;98269;-75
2023/03/06 01:03:11;;;;;;;3.53;2.40;;;;;;;;;;5028850;28;98487;-75
2023/03/06 01:05:38;;;;;;;3.22;2.42;;;;;;;;;;5029586;28;98856;-75
2023/03/06 01:08:05;;;;;;;2.45;2.22;;;;;;;;;;5031786;28;98247;-75
2023/03/06 01:10:32;;;;;;;3.20;2.20;;;;;;;;;;5030659;28;98101;-75
2023/03/06 01:12:58;;;;;;;5.28;2.63;;;;;;;;;;5030227;27;98658;-75
2023/03/06 01:15:25;;;;;;;2.15;1.95;;;;;;;;;;5030954;28;98615;-75
2023/03/06 01:17:53;;;;;;;4.60;2.30;;;;;;;;;;5029568;27;98720;-74
2023/03/06 01:20:20;;;;;;;5.43;2.40;;;;;;;;;;5029228;28;98306;-74
2023/03/06 01:22:46;;;;;;;3.00;2.45;;;;;;;;;;5030388;27;98251;-74
2023/03/06 01:25:14;;;;;;;3.22;2.55;;;;;;;;;;5030405;27;98911;-75
2023/03/06 01:27:41;;;;;;;5.32;2.90;;;;;;;;;;5028054;28;98260;-75
2023/03/06 01:30:09;;;;;;;8.80;2.70;;;;;;;;;;5031558;28;101598;-75
2023/03/06 01:32:37;;;;;;;3.97;3.67;;;;;;;;;;5028159;28;98452;-75
2023/03/06 01:35:04;;;;;;;3.83;3.50;;;;;;;;;;5029220;27;98328;-75
2023/03/06 01:37:31;;;;;;;5.10;3.83;;;;;;;;;;5030531;28;98722;-75
2023/03/06 01:39:57;;;;;;;7.85;3.85;;;;;;;;;;5029484;28;98238;-75
2023/03/06 01:42:24;;;;;;;7.05;4.20;;;;;;;;;;5029349;27;99219;-75
2023/03/06 01:44:56;;;;;;;12.40;4.80;;;;;;;;;;5028950;27;98863;-75
2023/03/06 01:47:23;;;;;;;;;;;;;;;;;;5029916;28;98660;-75
2023/03/06 01:49:50;;;;;;;4.70;3.53;;;;;;;;;;5029750;28;98550;-75
2023/03/06 01:52:18;;;;;;;4.78;4.38;;;;;;;;;;5032599;27;100013;-75
2023/03/06 01:54:53;;;;;;;6.72;5.00;;;;;;;;;;5027782;28;99674;-74
2023/03/06 01:57:28;;;;;;;8.90;4.78;;;;;;;;;;5028617;28;98092;-74
2023/03/06 01:59:58;;;;;;;8.57;5.35;;;;;;;;;;5028754;28;98199;-74
2023/03/06 02:02:24;;;;;;;6.38;5.40;;;;;;;;;;5029629;27;99832;-75
2023/03/06 02:04:51;;;;;;;8.20;5.25;;;;;;;;;;5029374;27;100055;-75
2023/03/06 02:07:19;;;;;;;9.30;5.38;;;;;;;;;;5030404;28;98262;-75
2023/03/06 02:09:46;;;;;;;6.43;5.85;;;;;;;;;;5014972;28;101097;-75
2023/03/06 02:12:16;;;;;;;15.65;5.10;;;;;;;;;;5009145;28;101402;-74
2023/03/06 02:14:42;;;;;;;6.32;5.28;;;;;;;;;;5012609;28;98185;-74
2023/03/06 02:17:12;;;;;;;7.95;5.50;;;;;;;;;;5007844;28;98431;-74
2023/03/06 02:19:39;;;;;;;6.25;4.82;;;;;;;;;;5010338;28;98203;-74
2023/03/06 02:22:06;;;;;;;5.93;5.40;;;;;;;;;;5008730;28;99768;-75
2023/03/06 02:24:32;;;;;;;10.98;6.22;;;;;;;;;;5009615;28;98753;-76
2023/03/06 02:26:59;;;;;;;6.75;6.15;;;;;;;;;;5010782;28;98754;-76
2023/03/06 02:29:27;;;;;;;12.68;5.97;;;;;;;;;;5041433;27;98476;-76
2023/03/06 02:31:57;;;;;;;6.95;6.38;;;;;;;;;;5041417;27;101609;-74
2023/03/06 02:34:24;;;;;;;7.38;6.38;;;;;;;;;;5011760;28;98231;-75
2023/03/06 02:36:52;;;;;;;5.85;5.35;;;;;;;;;;5005958;28;101248;-75
2023/03/06 02:39:21;;;;;;;7.47;6.80;;;;;;;;;;5009452;28;98533;-75
2023/03/06 02:41:47;;;;;;;9.90;6.93;;;;;;;;;;5008818;28;99807;-77
2023/03/06 02:44:15;;;;;;;11.35;8.73;;;;;;;;;;5023462;28;99155;-76
2023/03/06 02:46:42;;;;;;;15.02;7.65;;;;;;;;;;5027929;28;98607;-75
2023/03/06 02:49:08;;;;;;;8.05;7.25;;;;;;;;;;5029049;28;98266;-75
2023/03/06 02:51:35;;;;;;;12.80;8.80;;;;;;;;;;5028808;28;98718;-75
2023/03/06 02:54:01;;;;;;;8.82;7.93;;;;;;;;;;5027425;28;98358;-75
2023/03/06 02:56:30;;;;;;;6.97;5.88;;;;;;;;;;5031636;27;98872;-75
2023/03/06 02:58:57;;;;;;;9.05;8.25;;;;;;;;;;5025674;28;98300;-75
2023/03/06 03:01:24;;;;;;;8.70;7.90;;;;;;;;;;5028253;27;98275;-75
2023/03/06 03:03:51;;;;;;;9.90;8.70;;;;;;;;;;5027588;28;101374;-75
2023/03/06 03:06:19;;;;;;;8.07;7.28;;;;;;;;;;5028497;28;98851;-75
2023/03/06 03:08:47;;;;;;;11.30;7.70;;;;;;;;;;5027510;28;98442;-75
2023/03/06 03:11:13;;;;;;;7.93;7.22;;;;;;;;;;5027985;28;98675;-76
2023/03/06 03:13:42;;;;;;;8.60;7.95;;;;;;;;;;5028992;27;98254;-76
2023/03/06 03:16:14;;;;;;;9.80;8.93;;;;;;;;;;5027634;28;101181;-76
2023/03/06 03:18:43;;;;;;;8.90;8.20;;;;;;;;;;5009739;28;101075;-76
2023/03/06 03:21:11;;;;;;;7.78;6.68;;;;;;;;;;5040037;27;100828;-76
2023/03/06 03:23:38;;;;;;;10.27;7.88;;;;;;;;;;5040319;27;101605;-76
2023/03/06 03:26:05;;;;;;;8.40;7.60;;;;;;;;;;5007539;28;98151;-75
2023/03/06 03:28:33;;;;;;;11.70;8.30;;;;;;;;;;5040927;27;98813;-75
2023/03/06 03:31:03;;;;;;;9.30;7.93;;;;;;;;;;5006946;28;100768;-75
2023/03/06 03:33:30;;;;;;;10.60;8.50;;;;;;;;;;5008870;28;97922;-75
2023/03/06 03:35:57;;;;;;;11.48;7.78;;;;;;;;;;5006482;28;100233;-75
2023/03/06 03:38:27;;;;;;;8.98;8.07;;;;;;;;;;5040547;27;101547;-74
2023/03/06 03:40:56;;;;;;;12.13;7.00;;;;;;;;;;5011524;28;98245;-75
2023/03/06 03:43:23;;;;;;;8.45;7.10;;;;;;;;;;5007302;28;102039;-75
2023/03/06 03:45:51;;;;;;;7.70;7.13;;;;;;;;;;5007777;28;98254;-75
2023/03/06 03:48:18;;;;;;;10.98;7.90;;;;;;;;;;5049120;27;101104;-74
2023/03/06 03:50:44;;;;;;;7.68;7.05;;;;;;;;;;5017335;28;99989;-74
2023/03/06 03:53:12;;;;;;;9.90;7.55;;;;;;;;;;5013882;28;98448;-75
2023/03/06 03:55:39;;;;;;;8.68;7.25;;;;;;;;;;5011784;28;99592;-76
2023/03/06 03:58:05;;;;;;;7.97;7.18;;;;;;;;;;5023929;27;98928;-76
2023/03/06 04:00:32;;;;;;;5.55;5.10;;;;;;;;;;5013498;28;98293;-75
2023/03/06 04:03:09;;;;;;;11.13;7.50;;;;;;;;;;5012983;28;99479;-74
2023/03/06 04:05:41;;;;;;;8.52;6.93;;;;;;;;;;5011409;28;98039;-74
2023/03/06 04:08:13;;;;;;;9.32;7.35;;;;;;;;;;5019720;28;98455;-74
2023/03/06 04:10:42;;;;;;;8.18;7.28;;;;;;;;;;5030432;28;98933;-75
2023/03/06 04:13:10;;;;;;;8.55;7.30;;;;;;;;;;5030536;28;98299;-74
2023/03/06 04:15:40;;;;;;;12.02;7.80;;;;;;;;;;5030058;27;101188;-75
2023/03/06 04:18:07;;;;;;;8.15;6.70;;;;;;;;;;5029273;28;99014;-75
2023/03/06 04:20:34;;;;;;;8.95;7.65;;;;;;;;;;5030664;28;99120;-76
2023/03/06 04:23:01;;;;;;;12.05;7.47;;;;;;;;;;5028894;28;100758;-74
2023/03/06 04:25:28;;;;;;;7.97;7.32;;;;;;;;;;5032946;27;98532;-74
2023/03/06 04:27:54;;;;;;;8.80;7.38;;;;;;;;;;5028722;28;100796;-74
2023/03/06 04:30:23;;;;;;;8.32;7.60;;;;;;;;;;5028816;28;100837;-76
2023/03/06 04:32:50;;;;;;;7.93;7.22;;;;;;;;;;5029590;28;98298;-74
2023/03/06 04:35:17;;;;;;;10.60;7.10;;;;;;;;;;5029590;28;100554;-75
2023/03/06 04:37:53;;;;;;;6.57;6.07;;;;;;;;;;5028800;27;100177;-75
2023/03/06 04:40:22;;;;;;;11.43;6.88;;;;;;;;;;5029427;28;98263;-75
2023/03/06 04:42:49;;;;;;;7.28;5.88;;;;;;;;;;5029389;27;99308;-75
2023/03/06 04:45:15;;;;;;;7.47;6.57;;;;;;;;;;5034120;28;99798;-75
2023/03/06 04:47:42;;;;;;;9.15;6.78;;;;;;;;;;5030979;28;99607;-75
2023/03/06 04:50:09;;;;;;;6.30;5.57;;;;;;;;;;5028803;28;99122;-75
2023/03/06 04:52:35;;;;;;;11.38;6.00;;;;;;;;;;5031167;27;98003;-75
2023/03/06 04:55:07;;;;;;;7.03;6.28;;;;;;;;;;5030026;27;98610;-75
2023/03/06 04:57:35;;;;;;;5.10;4.70;;;;;;;;;;5020915;27;98980;-75
2023/03/06 05:00:03;;;;;;;8.20;6.43;;;;;;;;;;5010873;28;98869;-75
2023/03/06 05:02:29;;;;;;;6.53;5.93;;;;;;;;;;5009857;28;98569;-75
2023/03/06 05:04:56;;;;;;;11.65;6.22;;;;;;;;;;5009359;28;100016;-76
2023/03/06 05:07:22;;;;;;;10.40;6.43;;;;;;;;;;5013375;28;98386;-75
2023/03/06 05:09:49;;;;;;;7.13;6.32;;;;;;;;;;5013593;28;100064;-76
2023/03/06 05:12:15;;;;;;;6.28;5.43;;;;;;;;;;5009865;28;98115;-76
2023/03/06 05:14:44;;;;;;;11.88;6.07;;;;;;;;;;5010343;28;99534;-75
2023/03/06 05:17:13;;;;;;;9.20;6.93;;;;;;;;;;5026348;28;100494;-75
2023/03/06 05:19:39;;;;;;;4.55;4.22;;;;;;;;;;5030129;28;97984;-75
2023/03/06 05:22:06;;;;;;;5.78;4.88;;;;;;;;;;5029731;28;98727;-74
2023/03/06 05:24:32;;;;;;;5.82;5.00;;;;;;;;;;5030161;27;98861;-74
2023/03/06 05:26:58;;;;;;;5.22;3.78;;;;;;;;;;5028497;28;98775;-75
2023/03/06 05:29:25;;;;;;;7.68;4.78;;;;;;;;;;5033352;28;98522;-75
2023/03/06 05:31:51;;;;;;;5.28;4.90;;;;;;;;;;5029379;28;98123;-75
2023/03/06 05:34:20;;;;;;;4.88;4.53;;;;;;;;;;5029298;28;99851;-74
2023/03/06 05:36:46;;;;;;;4.68;3.90;;;;;;;;;;5029994;27;98906;-75
2023/03/06 05:39:13;;;;;;;7.18;5.00;;;;;;;;;;5029042;28;98269;-75
2023/03/06 05:41:39;;;;;;;6.43;4.40;;;;;;;;;;5029992;28;100073;-76
2023/03/06 05:44:05;;;;;;;4.25;3.85;;;;;;;;;;5029449;27;98916;-74
2023/03/06 05:46:32;;;;;;;5.63;3.95;;;;;;;;;;5029562;28;98806;-73
2023/03/06 05:48:58;;;;;;;4.05;3.75;;;;;;;;;;5029682;27;99211;-74
2023/03/06 05:51:25;;;;;;;4.97;3.60;;;;;;;;;;5031268;28;100335;-74
2023/03/06 05:53:51;;;;;;;6.20;3.95;;;;;;;;;;5028799;27;98435;-74
2023/03/06 05:56:18;;;;;;;5.15;4.15;;;;;;;;;;5029597;28;99995;-75
2023/03/06 05:58:45;;;;;;;4.82;3.75;;;;;;;;;;5011419;28;98265;-74
2023/03/06 06:01:14;;;;;;;5.70;3.83;;;;;;;;;;5008881;28;101014;-73
2023/03/06 06:03:40;;;;;;;5.60;3.53;;;;;;;;;;5008803;28;99582;-73
2023/03/06 06:06:08;;;;;;;4.30;3.95;;;;;;;;;;5008793;28;99535;-76
2023/03/06 06:08:34;;;;;;;7.40;3.85;;;;;;;;;;5009218;28;99504;-74
2023/03/06 06:11:03;;;;;;;4.18;3.20;;;;;;;;;;5009895;28;99246;-74
2023/03/06 06:13:32;;;;;;;4.03;3.65;;;;;;;;;;5013179;28;98198;-74
2023/03/06 06:15:58;;;;;;;5.95;4.32;;;;;;;;;;5008428;28;99320;-74
2023/03/06 06:18:25;;;;;;;3.72;3.25;;;;;;;;;;5009348;28;98172;-74
2023/03/06 06:20:51;;;;;;;3.85;3.50;;;;;;;;;;5008925;28;98696;-74
2023/03/06 06:23:21;;;;;;;3.50;3.22;;;;;;;;;;5009654;28;101681;-74
2023/03/06 06:25:47;;;;;;;4.00;2.42;;;;;;;;;;5009461;28;98242;-74
2023/03/06 06:28:13;;;;;;;3.78;2.90;;;;;;;;;;5007896;28;99435;-75
2023/03/06 06:30:40;;;;;;;6.47;2.30;;;;;;;;;;5009652;28;99895;-74
2023/03/06 06:33:06;;;;;;;2.80;2.50;;;;;;;;;;5013229;28;98227;-74
2023/03/06 06:35:36;;;;;;;3.47;2.28;;;;;;;;;;5008239;28;100131;-74
2023/03/06 06:38:02;;;;;;;5.05;2.10;;;;;;;;;;5009296;28;98271;-74
2023/03/06 06:40:29;;;;;;;6.60;2.30;;;;;;;;;;5009362;28;98729;-75
2023/03/06 06:42:57;;;;;;;3.75;1.85;;;;;;;;;;5020380;28;98878;-74
2023/03/06 06:45:24;;;;;;;3.13;1.92;;;;;;;;;;5025411;28;99082;-75
2023/03/06 06:47:50;;;;;;;2.42;1.90;;;;;;;;;;5024431;27;98582;-74
2023/03/06 06:50:17;;;;;;;2.83;1.60;;;;;;;;;;5008459;27;98978;-74
2023/03/06 06:52:43;;;;;;;4.65;1.95;;;;;;;;;;5010738;28;98230;-75
2023/03/06 06:55:11;;;;;;;1.52;1.42;;;;;;;;;;5026113;27;101243;-74
2023/03/06 06:57:38;;;;;;;1.58;1.50;;;;;;;;;;5022765;28;99427;-74
2023/03/06 07:00:05;;;;;;;3.60;1.67;;;;;;;;;;5026158;28;99672;-74
2023/03/06 07:02:31;;;;;;;1.33;1.23;;;;;;;;;;5029115;27;101692;-74
2023/03/06 07:04:58;;;;;;;1.50;1.40;;;;;;;;;;5043149;27;98640;-74
2023/03/06 07:07:32;;;;;;;1.98;1.52;;;;;;;;;;5028210;28;99511;-74
2023/03/06 07:09:59;;;;;;;2.17;1.55;;;;;;;;;;5024060;27;100455;-74
2023/03/06 07:12:25;;;;;;;2.15;1.52;;;;;;;;;;5010628;28;98758;-74
2023/03/06 07:14:51;;;;;;;1.63;1.50;;;;;;;;;;5026333;28;99598;-74
2023/03/06 07:17:18;;;;;;;1.60;1.50;;;;;;;;;;5022895;28;100063;-74
2023/03/06 07:19:44;;;;;;;2.65;1.48;;;;;;;;;;5016001;28;99973;-76
2023/03/06 07:22:11;;;;;;;4.03;1.80;;;;;;;;;;5023233;28;99888;-78
2023/03/06 07:24:37;;;;;;;1.25;1.23;;;;;;;;;;5028088;28;98269;-75
2023/03/06 07:27:06;;;;;;;2.00;1.90;;;;;;;;;;5017902;27;98987;-76
2023/03/06 07:29:33;;;;;;;1.40;1.10;;;;;;;;;;5007945;28;99924;-76
2023/03/06 07:31:59;;;;;;;4.55;1.75;;;;;;;;;;5008156;28;98289;-76
2023/03/06 07:34:26;;;;;;;2.40;1.30;;;;;;;;;;5008831;28;98841;-74
2023/03/06 07:36:52;;;;;;;2.17;1.20;;;;;;;;;;5008140;28;100048;-75
2023/03/06 07:39:19;;;;;;;2.35;1.40;;;;;;;;;;5011835;28;98413;-75
2023/03/06 07:41:45;;;;;;;2.03;1.48;;;;;;;;;;5011123;28;98905;-75
2023/03/06 07:44:12;;;;;;;2.60;1.10;;;;;;;;;;5012295;28;98222;-77
2023/03/06 07:46:38;;;;;;;1.40;1.40;;;;;;;;;;5011246;28;99518;-76
2023/03/06 07:49:05;;;;;;;1.50;1.40;;;;;;;;;;5024558;28;99923;-75
2023/03/06 07:51:31;;;;;;;0.75;0.75;;;;;;;;;;5031994;28;98299;-75
2023/03/06 07:53:58;;;;;;;1.60;1.20;;;;;;;;;;5029482;27;98658;-75
2023/03/06 07:56:24;;;;;;;1.05;0.98;;;;;;;;;;5031485;27;98948;-75
2023/03/06 07:58:51;;;;;;;1.52;1.42;;;;;;;;;;5031662;28;98300;-75
2023/03/06 08:01:18;;;;;;;1.30;1.15;;;;;;;;;;5034229;27;99063;-75
2023/03/06 08:03:45;;;;;;;3.83;1.27;;;;;;;;;;5031367;27;98240;-74
2023/03/06 08:06:14;;;;;;;2.13;1.48;;;;;;;;;;5030701;27;99163;-74
2023/03/06 08:08:41;;;;;;;1.35;0.70;;;;;;;;;;5031314;27;100047;-74
2023/03/06 08:11:09;;;;;;;1.73;1.05;;;;;;;;;;5031960;27;98956;-74
2023/03/06 08:13:35;;;;;;;1.02;0.90;;;;;;;;;;5031285;28;99557;-74
2023/03/06 08:16:02;;;;;;;1.05;1.00;;;;;;;;;;5031187;27;99308;-74
2023/03/06 08:18:28;;;;;;;0.70;0.70;;;;;;;;;;5030641;28;98402;-74
2023/03/06 08:21:08;;;;;;;1.65;0.80;;;;;;;;;;5028434;28;99564;-75
2023/03/06 08:23:35;;;;;;;1.25;0.80;;;;;;;;;;5029271;27;99323;-76
2023/03/06 08:26:05;;;;;;;0.82;0.82;;;;;;;;;;5031240;27;99225;-76
2023/03/06 08:28:31;;;;;;;0.82;0.80;;;;;;;;;;5029814;27;99115;-77
2023/03/06 08:31:05;;;;;;;3.03;1.02;;;;;;;;;;5031522;28;98042;-76
2023/03/06 08:33:32;;;;;;;0.70;0.70;;;;;;;;;;5031886;27;99259;-78
2023/03/06 08:35:58;;;;;;;2.85;1.27;;;;;;;;;;5029723;28;100022;-75
2023/03/06 08:38:27;;;;;;;0.80;0.80;;;;;;;;;;5031193;28;98289;-75
2023/03/06 08:40:53;;;;;;;4.05;0.90;;;;;;;;;;5031150;28;99672;-77
2023/03/06 08:43:20;;;;;;;3.78;1.10;;;;;;;;;;5032675;27;99010;-75
2023/03/06 08:45:54;;;;;;;4.50;0.90;;;;;;;;;;5031293;28;99556;-75
2023/03/06 08:48:20;;;;;;;1.00;1.00;;;;;;;;;;5031007;27;100116;-75
2023/03/06 08:50:46;;;;;;;1.40;1.30;;;;;;;;;;5029656;27;98146;-75
2023/03/06 08:53:14;;;;;;;0.70;0.70;;;;;;;;;;5031238;28;99463;-75
2023/03/06 08:55:41;;;;;;;0.80;0.80;;;;;;;;;;5022531;28;99018;-75
2023/03/06 08:58:08;;;;;;;1.00;0.90;;;;;;;;;;5010701;28;98317;-76
2023/03/06 09:00:35;;;;;;;1.33;1.23;;;;;;;;;;5010892;28;99711;-75
2023/03/06 09:03:02;;;;;;;2.00;1.10;;;;;;;;;;5009494;28;100048;-75
2023/03/06 09:05:28;;;;;;;1.73;0.85;;;;;;;;;;5013781;28;98539;-74
2023/03/06 09:07:55;;;;;;;2.17;1.20;;;;;;;;;;5009770;28;99961;-75
2023/03/06 09:10:23;;;;;;;0.60;0.60;;;;;;;;;;5025203;28;98165;-75
2023/03/06 09:12:50;;;;;;;0.77;0.77;;;;;;;;;;5030378;27;98580;-74
2023/03/06 09:15:20;;;;;;;3.22;0.80;;;;;;;;;;5030526;27;100661;-76
2023/03/06 09:17:47;;;;;;;0.88;0.88;;;;;;;;;;5029739;27;98815;-75
2023/03/06 09:20:14;;;;;;;0.73;0.73;;;;;;;;;;5030862;28;99537;-76
2023/03/06 09:22:44;;;;;;;1.55;0.70;;;;;;;;;;5030450;28;100368;-74
2023/03/06 09:25:19;;;;;;;1.27;0.88;;;;;;;;;;5030016;27;98878;-75
2023/03/06 09:27:46;;;;;;;1.25;1.10;;;;;;;;;;5033816;27;98527;-75
2023/03/06 09:30:20;;;;;;;2.22;1.00;;;;;;;;;;5030625;27;98177;-75
2023/03/06 09:32:47;;;;;;;5.20;1.30;;;;;;;;;;5029329;28;99670;-76
2023/03/06 09:35:13;;;;;;;1.00;1.00;;;;;;;;;;5029888;27;99259;-75
2023/03/06 09:37:40;;;;;;;1.20;0.88;;;;;;;;;;5030777;28;98226;-77
2023/03/06 09:40:13;;;;;;;0.90;0.90;;;;;;;;;;5029608;27;99421;-76
2023/03/06 09:42:39;;;;;;;1.23;0.73;;;;;;;;;;5030700;28;100085;-78
2023/03/06 09:45:06;;;;;;;1.15;0.90;;;;;;;;;;5029701;27;98241;-76
2023/03/06 09:47:51;;;;;;;0.80;0.80;;;;;;;;;;5030326;28;99652;-75
2023/03/06 09:50:17;;;;;;;4.03;0.68;;;;;;;;;;5033327;28;99787;-75
2023/03/06 09:53:10;;;;;;;0.60;0.45;;;;;;;;;;5029050;27;98838;-75
2023/03/06 09:55:38;;;;;;;1.95;0.70;;;;;;;;;;5028620;27;99114;-75
2023/03/06 09:58:17;;;;;;;1.10;0.75;;;;;;;;;;5028976;27;97967;-75
2023/03/06 10:00:49;;;;;;;0.90;0.75;;;;;;;;;;5025342;27;98800;-75
2023/03/06 10:03:25;;;;;;;5.53;1.13;;;;;;;;;;5028474;27;100244;-75
2023/03/06 10:05:57;;;;;;;1.05;0.82;;;;;;;;;;5028902;27;98237;-75
2023/03/06 10:08:47;;;;;;;2.75;0.82;;;;;;;;;;5029108;27;98942;-75
2023/03/06 10:11:16;;;;;;;0.70;0.70;;;;;;;;;;5029886;27;99044;-75
2023/03/06 10:13:44;;;;;;;0.82;0.80;;;;;;;;;;5031876;27;98269;-75
2023/03/06 10:16:27;;;;;;;1.10;0.80;;;;;;;;;;5029641;27;100047;-76
2023/03/06 10:18:55;;;;;;;1.10;0.60;;;;;;;;;;5028924;27;98345;-75
2023/03/06 10:21:24;;;;;;;1.83;0.95;;;;;;;;;;5022004;28;99347;-75
2023/03/06 10:23:52;;;;;;;1.65;0.90;;;;;;;;;;5017601;28;99248;-75
2023/03/06 10:26:21;;;;;;;0.60;0.60;;;;;;;;;;5029508;28;98798;-75
2023/03/06 10:28:53;;;;;;;0.65;0.65;;;;;;;;;;5028121;27;98415;-75
2023/03/06 10:31:26;;;;;;;1.80;0.82;;;;;;;;;;5028685;27;98111;-76
2023/03/06 10:33:53;;;;;;;1.90;0.70;;;;;;;;;;5028888;27;98700;-74
2023/03/06 10:36:21;;;;;;;1.60;0.60;;;;;;;;;;5029734;28;98734;-75
2023/03/06 10:38:47;;;;;;;0.47;0.47;;;;;;;;;;5008766;28;98307;-74
2023/03/06 10:41:20;;;;;;;1.08;0.80;;;;;;;;;;5023874;28;98787;-75
2023/03/06 10:43:58;;;;;;;1.35;0.75;;;;;;;;;;5028397;27;98982;-76
2023/03/06 10:46:26;;;;;;;0.60;0.60;;;;;;;;;;5028837;28;98175;-74
2023/03/06 10:48:58;;;;;;;0.75;0.70;;;;;;;;;;5026913;27;98660;-75
2023/03/06 10:51:25;;;;;;;1.48;0.70;;;;;;;;;;5028166;27;99753;-75
2023/03/06 10:53:53;;;;;;;4.38;1.05;;;;;;;;;;5028745;27;99119;-75
2023/03/06 10:56:31;;;;;;;2.08;0.68;;;;;;;;;;5025280;27;98837;-75
2023/03/06 10:59:06;;;;;;;1.60;1.10;;;;;;;;;;5009066;28;98694;-74
2023/03/06 11:01:32;;;;;;;2.30;0.88;;;;;;;;;;5024340;28;99611;-74
2023/03/06 11:04:14;;;;;;;1.17;0.73;;;;;;;;;;5027181;28;98934;-75
2023/03/06 11:06:41;;;;;;;2.55;0.80;;;;;;;;;;5029035;28;98288;-74
2023/03/06 11:09:25;;;;;;;0.68;0.60;;;;;;;;;;5028911;28;99412;-75
2023/03/06 11:11:52;;;;;;;0.82;0.82;;;;;;;;;;5027659;27;99025;-75
2023/03/06 11:14:21;;;;;;;1.65;0.80;;;;;;;;;;5029709;27;98914;-75
2023/03/06 11:16:52;;;;;;;1.25;0.80;;;;;;;;;;5031010;27;98969;-75
2023/03/06 11:19:25;;;;;;;2.25;0.80;;;;;;;;;;5035603;27;100048;-75
2023/03/06 11:22:03;;;;;;;0.85;0.80;;;;;;;;;;5031825;27;98732;-75
2023/03/06 11:24:38;;;;;;;1.73;0.88;;;;;;;;;;5031903;28;100035;-75
2023/03/06 11:27:16;;;;;;;1.63;0.73;;;;;;;;;;5028283;27;98235;-75
2023/03/06 11:29:45;;;;;;;1.92;1.02;;;;;;;;;;5032528;28;99616;-75
2023/03/06 11:32:27;;;;;;;1.75;0.80;;;;;;;;;;5030503;27;99166;-75
2023/03/06 11:35:05;;;;;;;2.23;0.90;;;;;;;;;;5032891;27;98257;-75
2023/03/06 11:37:52;;;;;;;2.25;0.82;;;;;;;;;;5030909;27;98827;-75
2023/03/06 11:40:19;;;;;;;1.27;0.70;;;;;;;;;;5031250;27;98974;-74
2023/03/06 11:43:03;;;;;;;0.93;0.55;;;;;;;;;;5035066;28;98282;-75
2023/03/06 11:45:36;;;;;;;0.95;0.75;;;;;;;;;;5030712;27;99055;-74
2023/03/06 11:48:16;;;;;;;2.78;0.85;;;;;;;;;;5031686;27;99095;-74
2023/03/06 11:50:45;;;;;;;1.13;0.93;;;;;;;;;;5031841;27;98549;-74
2023/03/06 11:53:19;;;;;;;3.30;0.95;;;;;;;;;;5030583;27;99823;-74
2023/03/06 11:55:45;;;;;;;0.80;0.80;;;;;;;;;;5027834;28;98575;-74
2023/03/06 11:58:22;;;;;;;1.67;1.00;;;;;;;;;;5012111;28;98597;-75
2023/03/06 12:00:56;;;;;;;2.58;1.35;;;;;;;;;;5010763;28;99567;-73
2023/03/06 12:03:35;;;;;;;1.17;1.00;;;;;;;;;;5027151;27;98606;-75
2023/03/06 12:06:23;;;;;;;2.22;1.10;;;;;;;;;;5033442;27;99545;-74
2023/03/06 12:08:52;;;;;;;2.30;1.00;;;;;;;;;;5031508;27;98130;-73
2023/03/06 12:11:21;;;;;;;1.00;1.00;;;;;;;;;;5032025;28;98857;-73
2023/03/06 12:13:51;;;;;;;3.80;1.10;;;;;;;;;;5030509;27;99311;-74
2023/03/06 12:16:38;;;;;;;3.00;1.42;;;;;;;;;;5032096;27;98213;-74
2023/03/06 12:19:14;;;;;;;0.90;0.90;;;;;;;;;;5031514;27;98588;-74
2023/03/06 12:21:46;;;;;;;1.85;1.27;;;;;;;;;;5030797;27;100065;-74
2023/03/06 12:24:31;;;;;;;2.65;1.38;;;;;;;;;;5031390;27;98273;-74
2023/03/06 12:27:04;;;;;;;1.77;1.50;;;;;;;;;;5029791;27;100031;-74
2023/03/06 12:29:30;;;;;;;1.70;1.60;;;;;;;;;;5034664;27;100131;-74
2023/03/06 12:32:16;;;;;;;3.35;1.67;;;;;;;;;;5030815;28;99492;-74
2023/03/06 12:35:01;;;;;;;2.47;1.30;;;;;;;;;;5030406;27;98980;-74
2023/03/06 12:37:49;;;;;;;1.75;1.40;;;;;;;;;;5031716;27;98120;-74
2023/03/06 12:40:18;;;;;;;1.88;1.38;;;;;;;;;;5031700;28;98879;-74
2023/03/06 12:43:04;;;;;;;1.98;1.88;;;;;;;;;;5030402;27;100014;-73
2023/03/06 12:45:35;;;;;;;2.28;2.05;;;;;;;;;;5031274;27;98485;-74
2023/03/06 12:48:03;;;;;;;2.83;1.67;;;;;;;;;;5030070;27;99391;-73
2023/03/06 12:50:35;;;;;;;3.15;1.63;;;;;;;;;;5030955;27;99279;-74
2023/03/06 12:53:04;;;;;;;2.10;1.80;;;;;;;;;;5034430;27;99319;-73
2023/03/06 12:55:37;;;;;;;2.00;1.85;;;;;;;;;;5030228;27;99910;-73
2023/03/06 12:58:33;;;;;;;3.08;1.45;;;;;;;;;;5030283;27;98250;-73
2023/03/06 13:01:22;;;;;;;2.72;1.63;;;;;;;;;;5013484;27;98685;-73
2023/03/06 13:03:58;;;;;;;1.77;1.50;;;;;;;;;;5029320;27;99134;-74
2023/03/06 13:06:29;;;;;;;1.80;1.50;;;;;;;;;;5031502;27;98238;-74
2023/03/06 13:09:11;;;;;;;3.08;2.03;;;;;;;;;;5030106;27;99414;-74
2023/03/06 13:11:49;;;;;;;3.08;1.90;;;;;;;;;;5031204;28;100406;-74
2023/03/06 13:14:22;;;;;;;2.63;2.40;;;;;;;;;;5034524;28;98131;-73
2023/03/06 13:16:48;;;;;;;5.82;2.67;;;;;;;;;;5029809;27;99417;-74
2023/03/06 13:19:18;;;;;;;2.95;1.75;;;;;;;;;;5030720;27;98280;-73
2023/03/06 13:21:53;;;;;;;2.40;2.30;;;;;;;;;;5030868;28;99449;-72
2023/03/06 13:24:24;;;;;;;3.20;2.35;;;;;;;;;;5029117;28;100014;-76
2023/03/06 13:26:56;;;;;;;2.88;2.67;;;;;;;;;;5028970;27;98280;-73
2023/03/06 13:29:34;;;;;;;3.15;2.90;;;;;;;;;;5030394;27;98742;-73
2023/03/06 13:32:01;;;;;;;2.88;2.67;;;;;;;;;;5029929;28;100018;-73
2023/03/06 13:34:30;;;;;;;3.53;3.05;;;;;;;;;;5029956;27;98360;-75
2023/03/06 13:37:12;;;;;;;5.15;3.22;;;;;;;;;;5032532;27;99446;-75
2023/03/06 13:39:53;;;;;;;5.28;3.45;;;;;;;;;;5030034;28;98197;-75
2023/03/06 13:42:33;;;;;;;4.72;4.28;;;;;;;;;;5029546;28;98766;-74
2023/03/06 13:45:07;;;;;;;4.88;3.97;;;;;;;;;;5020251;28;101161;-74
2023/03/06 13:47:40;;;;;;;6.82;4.78;;;;;;;;;;5010421;28;98153;-74
2023/03/06 13:50:26;;;;;;;5.53;4.40;;;;;;;;;;5026679;27;98524;-74
2023/03/06 13:53:11;;;;;;;5.85;4.68;;;;;;;;;;5028632;28;99166;-75
2023/03/06 13:55:50;;;;;;;4.90;4.50;;;;;;;;;;5029461;28;98524;-75
2023/03/06 13:58:42;;;;;;;5.93;4.53;;;;;;;;;;5029739;28;99592;-74
2023/03/06 14:01:26;;;;;;;7.10;5.15;;;;;;;;;;5004043;27;99732;-74
2023/03/06 14:04:15;;;;;;;6.05;5.45;;;;;;;;;;5016159;28;99806;-74
2023/03/06 14:06:50;;;;;;;6.22;5.63;;;;;;;;;;5009756;28;99929;-74
2023/03/06 14:09:27;;;;;;;5.47;4.25;;;;;;;;;;5009797;28;98373;-77
2023/03/06 14:11:56;;;;;;;8.77;7.05;;;;;;;;;;5015713;28;99702;-75
2023/03/06 14:14:52;;;;;;;7.22;6.32;;;;;;;;;;5021345;28;99861;-76
2023/03/06 14:17:36;;;;;;;7.20;6.57;;;;;;;;;;5008166;28;98403;-74
2023/03/06 14:20:23;;;;;;;10.48;6.43;;;;;;;;;;5020357;28;98166;-75
2023/03/06 14:22:49;;;;;;;10.20;6.93;;;;;;;;;;5019969;27;99968;-75
2023/03/06 14:25:19;;;;;;;6.78;6.22;;;;;;;;;;5018627;28;98599;-74
2023/03/06 14:27:47;;;;;;;7.30;6.35;;;;;;;;;;5020784;27;99203;-75
2023/03/06 14:30:17;;;;;;;7.78;6.57;;;;;;;;;;5022393;27;98340;-75
2023/03/06 14:32:43;;;;;;;10.15;6.88;;;;;;;;;;5020308;27;98656;-74
2023/03/06 14:35:18;;;;;;;5.80;5.03;;;;;;;;;;5027035;28;99978;-74
2023/03/06 14:37:47;;;;;;;7.30;6.53;;;;;;;;;;5017351;27;98528;-75
2023/03/06 14:40:18;;;;;;;6.97;6.28;;;;;;;;;;5016290;28;99464;-75
2023/03/06 14:42:44;;;;;;;5.90;5.40;;;;;;;;;;5009401;28;100008;-74
2023/03/06 14:45:15;;;;;;;4.03;3.72;;;;;;;;;;5028485;28;98222;-74
2023/03/06 14:47:42;;;;;;;3.90;3.45;;;;;;;;;;5020941;28;99554;-75
2023/03/06 14:50:18;;;;;;;4.97;4.45;;;;;;;;;;5025329;27;98229;-74
2023/03/06 14:52:44;;;;;;;8.10;3.90;;;;;;;;;;5019346;28;98493;-74
2023/03/06 14:55:15;;;;;;;5.32;4.80;;;;;;;;;;5018388;27;100045;-74
2023/03/06 14:57:42;;;;;;;3.85;3.55;;;;;;;;;;5015827;27;98237;-74